createdAt,value
2022-11-20T00:01:58.214Z,16.10
2022-11-20T00:04:24.739Z,15.30
2022-11-20T00:06:51.320Z,15.60
2022-11-20T00:09:17.874Z,15.43
2022-11-20T00:11:45.804Z,14.80
2022-11-20T00:14:12.389Z,16.50
2022-11-20T00:16:38.965Z,15.00
2022-11-20T00:19:05.539Z,19.33
2022-11-20T00:21:32.444Z,16.88
2022-11-20T00:23:59.427Z,16.35
2022-11-20T00:26:27.810Z,13.95
2022-11-20T00:28:58.140Z,17.23
2022-11-20T00:31:25.078Z,16.67
2022-11-20T00:33:51.818Z,13.43
2022-11-20T00:36:20.529Z,15.07
2022-11-20T00:38:48.245Z,15.05
2022-11-20T00:41:16.406Z,15.25
2022-11-20T00:43:43.783Z,15.25
2022-11-20T00:46:14.530Z,14.30
2022-11-20T00:48:41.554Z,14.57
2022-11-20T00:51:08.457Z,14.80
2022-11-20T00:53:35.694Z,14.57
2022-11-20T00:56:04.362Z,13.90
2022-11-20T00:58:33.103Z,15.35
2022-11-20T01:01:03.144Z,14.32
2022-11-20T01:03:33.566Z,13.57
2022-11-20T01:06:04.070Z,16.92
2022-11-20T01:08:32.047Z,15.80
2022-11-20T01:11:02.412Z,15.07
2022-11-20T01:13:30.211Z,13.73
2022-11-20T01:16:02.205Z,15.45
2022-11-20T01:18:28.800Z,18.85
2022-11-20T01:21:00.437Z,16.35
2022-11-20T01:23:27.032Z,16.80
2022-11-20T01:25:53.586Z,18.98
2022-11-20T01:28:20.120Z,18.58
2022-11-20T01:30:46.620Z,14.85
2022-11-20T01:33:13.232Z,17.25
2022-11-20T01:35:41.132Z,13.40
2022-11-20T01:38:09.053Z,13.80
2022-11-20T01:40:35.585Z,17.98
2022-11-20T01:43:14.471Z,16.23
2022-11-20T01:46:15.962Z,15.70
2022-11-20T01:48:48.740Z,15.63
2022-11-20T01:51:21.875Z,16.30
2022-11-20T01:53:51.220Z,15.43
2022-11-20T01:56:18.174Z,17.85
2022-11-20T01:58:49.551Z,15.98
2022-11-20T02:01:16.867Z,12.77
2022-11-20T02:03:44.638Z,16.52
2022-11-20T02:06:16.065Z,17.20
2022-11-20T02:08:42.691Z,16.17
2022-11-20T02:11:10.793Z,18.83
2022-11-20T02:13:37.444Z,16.55
2022-11-20T02:16:05.135Z,18.67
2022-11-20T02:18:33.049Z,17.95
2022-11-20T02:21:07.156Z,15.95
2022-11-20T02:23:39.181Z,16.38
2022-11-20T02:28:35.820Z,16.13
2022-11-20T02:31:02.635Z,17.00
2022-11-20T02:33:29.163Z,19.67
2022-11-20T02:36:11.035Z,17.05
2022-11-20T02:38:37.731Z,14.60
2022-11-20T02:41:04.851Z,16.90
2022-11-20T02:43:32.965Z,15.05
2022-11-20T02:45:59.801Z,16.75
2022-11-20T02:48:28.209Z,16.98
2022-11-20T02:50:56.715Z,14.82
2022-11-20T02:53:23.252Z,14.82
2022-11-20T02:55:49.822Z,15.23
2022-11-20T02:58:17.360Z,15.13
2022-11-20T03:00:45.693Z,16.30
2022-11-20T03:03:12.202Z,17.10
2022-11-20T03:05:39.070Z,16.05
2022-11-20T03:08:05.623Z,14.48
2022-11-20T03:10:32.534Z,18.63
2022-11-20T03:12:59.066Z,17.55
2022-11-20T03:15:25.764Z,17.13
2022-11-20T03:17:55.943Z,16.20
2022-11-20T03:20:23.026Z,15.25
2022-11-20T03:22:49.606Z,15.52
2022-11-20T03:25:16.185Z,17.42
2022-11-20T03:27:42.689Z,18.65
2022-11-20T03:30:10.494Z,15.95
2022-11-20T03:32:37.010Z,19.05
2022-11-20T03:35:05.877Z,16.00
2022-11-20T03:37:32.927Z,17.33
2022-11-20T03:39:59.754Z,16.33
2022-11-20T03:42:26.281Z,17.27
2022-11-20T03:44:52.879Z,17.95
2022-11-20T03:47:19.437Z,17.40
2022-11-20T03:49:46.054Z,17.73
2022-11-20T03:52:13.999Z,18.35
2022-11-20T03:54:40.618Z,18.15
2022-11-20T03:57:07.175Z,15.30
2022-11-20T03:59:33.780Z,17.42
2022-11-20T04:02:00.351Z,16.85
2022-11-20T04:04:26.932Z,16.80
2022-11-20T04:06:54.345Z,16.80
2022-11-20T04:09:22.528Z,16.90
2022-11-20T04:11:49.495Z,16.25
2022-11-20T04:14:17.129Z,15.05
2022-11-20T04:16:44.113Z,16.52
2022-11-20T04:19:13.272Z,15.98
2022-11-20T04:21:40.527Z,14.13
2022-11-20T04:24:07.738Z,17.52
2022-11-20T04:26:35.640Z,17.02
2022-11-20T04:29:02.237Z,15.35
2022-11-20T04:31:30.613Z,16.33
2022-11-20T04:34:03.614Z,14.73
2022-11-20T04:36:30.965Z,16.83
2022-11-20T04:38:59.113Z,16.75
2022-11-20T04:41:28.440Z,17.38
2022-11-20T04:43:58.381Z,16.50
2022-11-20T04:46:24.890Z,18.05
2022-11-20T04:48:51.380Z,15.23
2022-11-20T04:51:18.009Z,15.13
2022-11-20T04:53:44.887Z,15.25
2022-11-20T04:56:13.250Z,17.15
2022-11-20T04:58:40.549Z,15.88
2022-11-20T05:01:11.237Z,16.90
2022-11-20T05:03:42.183Z,14.88
2022-11-20T05:06:10.783Z,17.13
2022-11-20T05:08:37.525Z,16.70
2022-11-20T05:11:05.562Z,16.45
2022-11-20T05:13:32.098Z,15.43
2022-11-20T05:16:02.598Z,17.50
2022-11-20T05:18:30.772Z,19.88
2022-11-20T05:20:57.637Z,16.20
2022-11-20T05:23:24.313Z,16.75
2022-11-20T05:25:58.529Z,16.42
2022-11-20T05:28:26.785Z,16.98
2022-11-20T05:30:53.290Z,17.90
2022-11-20T05:33:20.415Z,13.52
2022-11-20T05:35:48.944Z,16.92
2022-11-20T05:38:15.805Z,15.07
2022-11-20T05:40:42.347Z,15.18
2022-11-20T05:43:10.369Z,17.55
2022-11-20T05:45:37.129Z,19.45
2022-11-20T05:48:04.130Z,15.68
2022-11-20T05:50:30.801Z,15.13
2022-11-20T05:53:00.707Z,15.52
2022-11-20T05:55:27.238Z,16.13
2022-11-20T05:57:54.489Z,16.90
2022-11-20T06:00:21.142Z,15.43
2022-11-20T06:02:47.699Z,16.65
2022-11-20T06:05:14.327Z,16.65
2022-11-20T06:07:40.958Z,15.02
2022-11-20T06:10:10.040Z,17.35
2022-11-20T06:12:36.637Z,18.15
2022-11-20T06:15:03.505Z,17.85
2022-11-20T06:17:30.061Z,17.77
2022-11-20T06:19:56.593Z,17.70
2022-11-20T06:22:23.110Z,16.27
2022-11-20T06:24:49.702Z,15.00
2022-11-20T06:27:17.832Z,16.52
2022-11-20T06:29:44.425Z,14.55
2022-11-20T06:32:11.117Z,19.30
2022-11-20T06:34:37.732Z,15.38
2022-11-20T06:37:04.228Z,16.05
2022-11-20T06:39:30.739Z,16.20
2022-11-20T06:41:59.048Z,16.38
2022-11-20T06:44:28.575Z,16.60
2022-11-20T06:46:55.075Z,18.02
2022-11-20T06:49:21.836Z,15.80
2022-11-20T06:51:48.528Z,17.63
2022-11-20T06:54:16.109Z,18.17
2022-11-20T06:56:42.651Z,18.83
2022-11-20T06:59:09.212Z,18.75
2022-11-20T07:01:37.080Z,16.63
2022-11-20T07:04:03.720Z,15.85
2022-11-20T07:06:30.237Z,18.17
2022-11-20T07:08:56.745Z,72.30
2022-11-20T07:11:23.546Z,110.53
2022-11-20T07:13:50.394Z,27.73
2022-11-20T07:16:17.616Z,22.33
2022-11-20T07:18:50.469Z,16.70
2022-11-20T07:21:17.842Z,18.08
2022-11-20T07:23:44.467Z,16.55
2022-11-20T07:26:11.780Z,17.60
2022-11-20T07:28:38.960Z,18.95
2022-11-20T07:31:06.699Z,19.05
2022-11-20T07:33:34.832Z,17.48
2022-11-20T07:36:02.912Z,18.23
2022-11-20T07:38:30.951Z,19.17
2022-11-20T07:40:58.140Z,21.38
2022-11-20T07:43:24.775Z,16.05
2022-11-20T07:45:51.356Z,18.45
2022-11-20T07:48:17.891Z,17.35
2022-11-20T07:50:45.579Z,18.30
2022-11-20T07:53:14.565Z,19.13
2022-11-20T07:55:41.198Z,18.42
2022-11-20T07:58:07.746Z,14.48
2022-11-20T08:00:34.418Z,18.75
2022-11-20T08:03:04.282Z,18.92
2022-11-20T08:05:30.890Z,18.60
2022-11-20T08:07:57.435Z,18.25
2022-11-20T08:10:25.867Z,19.70
2022-11-20T08:12:53.430Z,21.25
2022-11-20T08:15:20.004Z,19.77
2022-11-20T08:18:08.182Z,20.77
2022-11-20T08:20:33.687Z,17.63
2022-11-20T08:23:00.822Z,20.85
2022-11-20T08:25:29.545Z,18.65
2022-11-20T08:28:00.367Z,19.13
2022-11-20T08:30:28.443Z,18.98
2022-11-20T08:32:55.240Z,21.77
2022-11-20T08:35:22.418Z,20.52
2022-11-20T08:37:50.386Z,22.02
2022-11-20T08:40:19.597Z,23.00
2022-11-20T08:42:48.499Z,17.70
2022-11-20T08:45:15.389Z,20.08
2022-11-20T08:47:42.121Z,21.38
2022-11-20T08:50:09.878Z,20.98
2022-11-20T08:52:39.879Z,20.40
2022-11-20T08:55:08.072Z,19.45
2022-11-20T08:57:35.337Z,20.33
2022-11-20T09:00:06.306Z,22.33
2022-11-20T09:02:33.462Z,22.05
2022-11-20T09:04:59.962Z,45.35
2022-11-20T09:07:26.622Z,23.80
2022-11-20T09:10:09.981Z,22.23
2022-11-20T09:12:39.727Z,27.00
2022-11-20T09:15:09.122Z,24.25
2022-11-20T09:17:35.755Z,21.17
2022-11-20T09:20:02.277Z,23.45
2022-11-20T09:22:28.818Z,24.02
2022-11-20T09:24:55.442Z,25.42
2022-11-20T09:27:22.009Z,20.98
2022-11-20T09:29:48.519Z,26.63
2022-11-20T09:32:16.510Z,23.77
2022-11-20T09:34:43.023Z,23.75
2022-11-20T09:37:09.580Z,23.23
2022-11-20T09:39:36.074Z,24.95
2022-11-20T09:42:29.590Z,27.42
2022-11-20T09:45:11.207Z,24.27
2022-11-20T09:47:53.337Z,25.88
2022-11-20T09:53:05.463Z,24.23
2022-11-20T09:55:32.552Z,25.75
2022-11-20T09:58:00.574Z,26.85
2022-11-20T10:00:29.904Z,24.50
2022-11-20T10:03:02.480Z,25.92
2022-11-20T10:05:35.455Z,28.48
2022-11-20T10:08:15.132Z,24.92
2022-11-20T10:10:48.291Z,25.40
2022-11-20T10:13:39.333Z,27.08
2022-11-20T10:16:18.261Z,28.52
2022-11-20T10:19:04.626Z,25.23
2022-11-20T10:21:40.749Z,24.40
2022-11-20T10:24:30.454Z,31.48
2022-11-20T10:27:09.889Z,26.52
2022-11-20T10:29:42.268Z,28.85
2022-11-20T10:32:12.543Z,26.38
2022-11-20T10:34:48.009Z,28.35
2022-11-20T10:37:19.384Z,25.88
2022-11-20T10:39:54.250Z,25.67
2022-11-20T10:42:29.749Z,30.90
2022-11-20T10:45:05.955Z,24.65
2022-11-20T10:47:34.416Z,24.67
2022-11-20T10:50:06.943Z,24.70
2022-11-20T10:52:43.856Z,23.02
2022-11-20T10:55:25.683Z,25.98
2022-11-20T10:57:58.455Z,26.23
2022-11-20T11:00:25.006Z,22.58
2022-11-20T11:02:53.167Z,24.80
2022-11-20T11:05:33.524Z,23.25
2022-11-20T11:08:00.215Z,23.55
2022-11-20T11:10:33.842Z,23.80
2022-11-20T11:13:00.453Z,25.48
2022-11-20T11:15:29.421Z,27.02
2022-11-20T11:17:56.254Z,20.70
2022-11-20T11:20:25.544Z,25.42
2022-11-20T11:22:54.579Z,22.30
2022-11-20T11:25:27.277Z,21.45
2022-11-20T11:27:55.529Z,24.17
2022-11-20T11:30:23.202Z,22.77
2022-11-20T11:32:50.055Z,22.90
2022-11-20T11:35:48.240Z,20.95
2022-11-20T11:38:22.847Z,22.83
2022-11-20T11:43:23.005Z,23.25
2022-11-20T11:45:54.314Z,22.35
2022-11-20T11:48:21.590Z,21.52
2022-11-20T11:50:51.419Z,20.98
2022-11-20T11:53:20.001Z,23.42
2022-11-20T11:55:50.949Z,19.75
2022-11-20T11:58:30.358Z,23.33
2022-11-20T12:01:01.522Z,22.35
2022-11-20T12:03:35.272Z,17.02
2022-11-20T12:06:09.875Z,23.33
2022-11-20T12:08:44.645Z,23.55
2022-11-20T12:11:16.954Z,20.75
2022-11-20T12:13:53.585Z,20.02
2022-11-20T12:16:21.596Z,20.65
2022-11-20T12:18:51.054Z,22.70
2022-11-20T12:21:31.964Z,23.88
2022-11-20T12:24:21.595Z,26.25
2022-11-20T12:27:05.847Z,22.73
2022-11-20T12:29:44.227Z,23.27
2022-11-20T12:32:35.410Z,21.52
2022-11-20T12:35:11.685Z,21.83
2022-11-20T12:37:47.587Z,30.52
2022-11-20T12:40:28.898Z,51.83
2022-11-20T12:43:07.249Z,28.08
2022-11-20T12:46:08.682Z,31.10
2022-11-20T12:48:46.487Z,36.13
2022-11-20T12:51:35.537Z,38.60
2022-11-20T12:54:25.124Z,27.00
2022-11-20T12:57:04.013Z,25.80
2022-11-20T12:59:48.615Z,23.52
2022-11-20T13:02:26.529Z,23.08
2022-11-20T13:05:17.487Z,24.30
2022-11-20T13:07:45.741Z,27.30
2022-11-20T13:10:22.344Z,28.45
2022-11-20T13:12:55.939Z,25.88
2022-11-20T13:15:35.765Z,23.90
2022-11-20T13:18:11.235Z,37.63
2022-11-20T13:20:43.418Z,29.42
2022-11-20T13:23:10.150Z,25.92
2022-11-20T13:25:40.323Z,21.98
2022-11-20T13:28:28.682Z,22.45
2022-11-20T13:30:56.970Z,23.70
2022-11-20T13:33:27.955Z,27.27
2022-11-20T13:35:59.400Z,21.87
2022-11-20T13:38:28.842Z,22.27
2022-11-20T13:41:01.979Z,24.17
2022-11-20T13:43:35.190Z,22.17
2022-11-20T13:46:03.866Z,19.30
2022-11-20T13:48:33.225Z,22.73
2022-11-20T13:51:09.142Z,19.50
2022-11-20T13:53:53.132Z,20.27
2022-11-20T13:56:28.030Z,23.17
2022-11-20T13:59:05.299Z,22.83
2022-11-20T14:01:32.760Z,19.83
2022-11-20T14:04:06.028Z,22.95
2022-11-20T14:06:40.013Z,20.20
2022-11-20T14:09:12.380Z,19.75
2022-11-20T14:11:47.375Z,21.73
2022-11-20T14:14:17.345Z,20.15
2022-11-20T14:16:44.002Z,18.77
2022-11-20T14:19:28.626Z,18.70
2022-11-20T14:22:07.098Z,20.58
2022-11-20T14:24:34.133Z,17.65
2022-11-20T14:27:03.005Z,18.15
2022-11-20T14:29:34.200Z,20.83
2022-11-20T14:32:02.094Z,20.80
2022-11-20T14:34:31.012Z,21.98
2022-11-20T14:36:59.882Z,18.85
2022-11-20T14:39:31.337Z,25.63
2022-11-20T14:41:58.035Z,19.83
2022-11-20T14:44:28.797Z,67.90
2022-11-20T14:46:56.847Z,19.10
2022-11-20T14:49:24.106Z,22.85
2022-11-20T14:52:00.382Z,23.02
2022-11-20T14:54:27.033Z,25.02
2022-11-20T14:56:57.206Z,34.85
2022-11-20T14:59:26.289Z,22.58
2022-11-20T15:01:58.114Z,19.45
2022-11-20T15:06:54.807Z,16.45
2022-11-20T15:09:21.689Z,19.90
2022-11-20T15:11:55.921Z,23.67
2022-11-20T15:14:23.244Z,18.65
2022-11-20T15:16:51.712Z,24.15
2022-11-20T15:19:21.673Z,21.42
2022-11-20T15:21:48.255Z,21.23
2022-11-20T15:24:15.022Z,18.92
2022-11-20T15:26:42.219Z,21.00
2022-11-20T15:29:10.452Z,24.02
2022-11-20T15:31:37.246Z,22.50
2022-11-20T15:34:06.485Z,28.90
2022-11-20T15:36:32.985Z,21.10
2022-11-20T15:39:00.413Z,24.05
2022-11-20T15:41:27.162Z,24.67
2022-11-20T15:43:53.681Z,21.33
2022-11-20T15:46:27.268Z,20.60
2022-11-20T15:48:56.840Z,19.25
2022-11-20T15:51:27.508Z,20.90
2022-11-20T15:53:56.331Z,18.25
2022-11-20T15:56:23.445Z,19.70
2022-11-20T15:58:50.115Z,21.55
2022-11-20T16:01:19.468Z,17.92
2022-11-20T16:03:46.221Z,17.30
2022-11-20T16:06:13.116Z,18.60
2022-11-20T16:08:41.023Z,19.73
2022-11-20T16:11:07.542Z,19.95
2022-11-20T16:13:34.194Z,18.77
2022-11-20T16:16:04.136Z,17.35
2022-11-20T16:18:30.696Z,20.73
2022-11-20T16:20:57.604Z,22.10
2022-11-20T16:23:24.621Z,20.35
2022-11-20T16:25:52.632Z,22.42
2022-11-20T16:28:19.577Z,18.50
2022-11-20T16:30:46.929Z,16.73
2022-11-20T16:33:15.822Z,18.75
2022-11-20T16:35:42.401Z,17.67
2022-11-20T16:38:09.509Z,15.05
2022-11-20T16:40:36.350Z,16.10
2022-11-20T16:43:09.365Z,18.63
2022-11-20T16:45:41.190Z,18.80
2022-11-20T16:48:07.843Z,18.60
2022-11-20T16:50:34.427Z,20.55
2022-11-20T16:53:01.093Z,18.33
2022-11-20T16:55:27.619Z,20.92
2022-11-20T16:57:54.212Z,18.52
2022-11-20T17:00:22.096Z,15.02
2022-11-20T17:02:49.050Z,10.50
2022-11-20T17:05:15.594Z,8.18
2022-11-20T17:07:42.257Z,10.05
2022-11-20T17:10:09.396Z,10.52
2022-11-20T17:12:35.976Z,14.57
2022-11-20T17:15:02.489Z,12.15
2022-11-20T17:17:30.617Z,13.70
2022-11-20T17:19:57.260Z,15.55
2022-11-20T17:22:23.866Z,14.18
2022-11-20T17:24:50.364Z,14.70
2022-11-20T17:27:16.988Z,11.30
2022-11-20T17:29:43.481Z,11.48
2022-11-20T17:32:10.018Z,10.13
2022-11-20T17:34:37.877Z,7.53
2022-11-20T17:37:04.538Z,6.97
2022-11-20T17:39:31.045Z,8.15
2022-11-20T17:41:57.681Z,7.13
2022-11-20T17:44:24.349Z,6.40
2022-11-20T17:46:51.142Z,8.32
2022-11-20T17:49:22.783Z,9.02
2022-11-20T17:51:51.922Z,8.32
2022-11-20T17:54:18.460Z,8.27
2022-11-20T17:56:45.044Z,8.00
2022-11-20T17:59:13.179Z,12.43
2022-11-20T18:01:40.539Z,8.60
2022-11-20T18:04:07.150Z,6.70
2022-11-20T18:06:33.749Z,12.02
2022-11-20T18:09:03.364Z,13.35
2022-11-20T18:11:31.803Z,8.68
2022-11-20T18:13:59.187Z,8.65
2022-11-20T18:16:26.146Z,10.95
2022-11-20T18:18:54.541Z,9.13
2022-11-20T18:21:21.159Z,8.02
2022-11-20T18:23:47.814Z,7.05
2022-11-20T18:26:16.035Z,8.13
2022-11-20T18:28:42.591Z,6.53
2022-11-20T18:31:09.959Z,6.00
2022-11-20T18:33:37.069Z,8.20
2022-11-20T18:36:09.509Z,14.25
2022-11-20T18:38:36.220Z,14.45
2022-11-20T18:41:03.943Z,8.98
2022-11-20T18:43:33.022Z,11.60
2022-11-20T18:46:02.982Z,10.27
2022-11-20T18:48:31.494Z,7.70
2022-11-20T18:51:05.083Z,7.00
2022-11-20T18:53:31.704Z,6.28
2022-11-20T18:55:58.201Z,6.18
2022-11-20T18:58:24.767Z,8.13
2022-11-20T19:00:52.613Z,9.68
2022-11-20T19:03:19.178Z,10.77
2022-11-20T19:05:45.712Z,9.75
2022-11-20T19:08:12.499Z,10.60
2022-11-20T19:10:39.018Z,8.25
2022-11-20T19:13:05.586Z,6.95
2022-11-20T19:15:33.052Z,9.48
2022-11-20T19:18:00.996Z,8.75
2022-11-20T19:20:27.539Z,8.65
2022-11-20T19:22:54.223Z,6.60
2022-11-20T19:25:20.956Z,6.63
2022-11-20T19:27:48.066Z,8.23
2022-11-20T19:30:15.016Z,12.50
2022-11-20T19:32:41.610Z,7.05
2022-11-20T19:35:09.761Z,6.50
2022-11-20T19:37:36.350Z,5.50
2022-11-20T19:40:03.012Z,6.95
2022-11-20T19:42:30.384Z,6.57
2022-11-20T19:44:56.911Z,7.25
2022-11-20T19:47:35.389Z,7.22
2022-11-20T19:50:11.887Z,7.68
2022-11-20T19:52:38.414Z,6.97
2022-11-20T19:55:05.219Z,9.77
2022-11-20T19:57:32.033Z,12.30
2022-11-20T19:59:58.630Z,14.15
2022-11-20T20:02:25.149Z,15.35
2022-11-20T20:04:51.739Z,10.48
2022-11-20T20:07:19.661Z,11.02
2022-11-20T20:09:46.308Z,13.73
2022-11-20T20:12:12.872Z,9.70
2022-11-20T20:14:39.453Z,10.65
2022-11-20T20:17:05.974Z,11.95
2022-11-20T20:19:33.016Z,11.63
2022-11-20T20:21:59.529Z,12.43
2022-11-20T20:24:27.468Z,14.40
2022-11-20T20:26:57.942Z,13.05
2022-11-20T20:29:25.514Z,10.23
2022-11-20T20:31:52.406Z,8.98
2022-11-20T20:34:19.093Z,14.07
2022-11-20T20:36:45.787Z,18.60
2022-11-20T20:39:12.351Z,15.27
2022-11-20T20:41:40.234Z,10.00
2022-11-20T20:44:06.794Z,13.77
2022-11-20T20:46:33.426Z,12.45
2022-11-20T20:49:00.288Z,11.38
2022-11-20T20:51:26.935Z,13.32
2022-11-20T20:53:54.199Z,6.32
2022-11-20T20:56:20.775Z,11.45
2022-11-20T20:58:48.727Z,12.77
2022-11-20T21:01:17.907Z,17.27
2022-11-20T21:03:44.851Z,15.00
2022-11-20T21:06:12.034Z,15.55
2022-11-20T21:08:41.117Z,10.40
2022-11-20T21:11:10.252Z,16.63
2022-11-20T21:13:37.988Z,11.15
2022-11-20T21:16:06.748Z,10.27
2022-11-20T21:18:33.527Z,8.35
2022-11-20T21:21:00.663Z,9.48
2022-11-20T21:23:27.221Z,8.73
2022-11-20T21:25:53.965Z,9.75
2022-11-20T21:28:21.405Z,8.30
2022-11-20T21:30:48.126Z,6.65
2022-11-20T21:33:15.992Z,11.85
2022-11-20T21:35:42.575Z,11.63
2022-11-20T21:38:09.096Z,13.98
2022-11-20T21:40:35.767Z,10.90
2022-11-20T21:43:02.260Z,15.18
2022-11-20T21:45:28.776Z,9.25
2022-11-20T21:47:55.412Z,5.95
2022-11-20T21:50:23.272Z,10.13
2022-11-20T21:52:49.798Z,12.50
2022-11-20T21:55:16.311Z,6.85
2022-11-20T21:57:42.829Z,11.07
2022-11-20T22:00:11.404Z,9.98
2022-11-20T22:02:38.704Z,9.43
2022-11-20T22:05:06.181Z,12.32
2022-11-20T22:07:34.107Z,10.45
2022-11-20T22:10:00.664Z,10.93
2022-11-20T22:12:27.169Z,10.38
2022-11-20T22:14:53.668Z,11.80
2022-11-20T22:17:20.187Z,17.85
2022-11-20T22:19:46.700Z,9.43
2022-11-20T22:22:13.201Z,9.93
2022-11-20T22:24:41.080Z,14.45
2022-11-20T22:27:07.585Z,9.82
2022-11-20T22:29:34.105Z,11.75
2022-11-20T22:32:00.641Z,8.82
2022-11-20T22:34:27.364Z,8.13
2022-11-20T22:36:53.966Z,11.57
2022-11-20T22:39:20.497Z,9.60
2022-11-20T22:41:48.383Z,9.13
2022-11-20T22:44:15.023Z,10.38
2022-11-20T22:46:41.568Z,12.02
2022-11-20T22:49:08.302Z,9.10
2022-11-20T22:51:36.694Z,10.23
2022-11-20T22:54:03.855Z,9.13
2022-11-20T22:56:30.786Z,9.77
2022-11-20T22:58:58.690Z,11.48
2022-11-20T23:01:27.691Z,9.30
2022-11-20T23:03:56.545Z,9.50
2022-11-20T23:06:24.347Z,10.75
2022-11-20T23:08:51.347Z,9.15
2022-11-20T23:11:19.780Z,19.48
2022-11-20T23:13:47.251Z,8.82
2022-11-20T23:16:18.569Z,9.57
2022-11-20T23:18:45.894Z,14.05
2022-11-20T23:21:14.887Z,9.65
2022-11-20T23:23:42.089Z,9.55
2022-11-20T23:26:10.462Z,16.25
2022-11-20T23:28:37.192Z,11.55
2022-11-20T23:31:05.782Z,13.10
2022-11-20T23:33:35.300Z,17.70
2022-11-20T23:36:01.853Z,8.35
2022-11-20T23:38:28.361Z,9.25
2022-11-20T23:40:54.867Z,13.70
2022-11-20T23:43:22.134Z,10.57
2022-11-20T23:45:50.254Z,15.68
2022-11-20T23:48:17.764Z,11.27
2022-11-20T23:50:45.969Z,10.38
2022-11-20T23:53:13.310Z,14.90
2022-11-20T23:55:39.897Z,14.45
2022-11-20T23:58:06.404Z,11.63
